Pagrindinis puslapis
METAR-TAF:

METAR-TAF

Oro uostai :

Takna, Peru

platuma: 18-04S, ilguma: 070-18W, Aukštis: 468 m

Dabartinis oras

Ataskaita buvo paskelbta 23 minutes, ne 04:00 UTC
Vėjas 2 kt iš Vakarų/Pietvakarių
Temperatūra 12°C
Drėgmė 88%
Slėgis 1018 hPa
Matomumas 10 km arba daugiau
nėra debesų žemiau 1500 m ir nėra kamuolinių lietaus debesų

METAR: SPTN 220400Z 24002KT CAVOK 12/10 Q1018 RMK PP000

Laikas: 23:23 (04:23 UTC)

Prognozė

Ataskaita buvo paskelbta 5 valandos ir 23 minutes, ne 23:00 UTC
Prognozė galioja nuo 22 metu 00 UTC su 22 metu 24 UTC
Vėjas 3 kt iš Pietvakarių
Matomumas: 8000 m
Apsiniaukę ne aukštis 2000 ft
Nuo 22 metu 1300 UTC
Vėjas 5 kt iš Vakarų/Pietvakarių
Matomumas 10 km arba daugiau
Su prošvaistėmis ne aukštis 2500 ft
Nuo 22 metu 1700 UTC
Vėjas 8 kt iš Pietvakarių
Matomumas 10 km arba daugiau
nėra debesų žemiau 1500 m ir nėra kamuolinių lietaus debesų

TAF: SPTN 212300Z 2200/2224 23003KT 8000 OVC020 TX21/2219Z TN11/2210Z FM221300 25005KT 9999 BKN025 FM221700 22008KT CAVOK

Orai ataskaitas ir orų prognozės (METAR, TAF).

turimą stotys yra geltonos ir raudonos taškus žemėlapyje.

Perkelti pele per norėdami pamatyti stoties vardą.

Tada spustelėkite, norėdami matyti oro stebėjimo ir prognozės.

Norėdami pakeisti žemėlapį: spustelėkite ant žalios mygtukų su juodo kryžiaus žemyn,; žalią mygtuką su brūkšneliu, jei norite nutolinti; arba žalių rodyklių gretimoms žemėlapius.


METAR-TAF: